Metar z połowy godziny Komunikat METAR ze strony awiacja.imgw.pl Metar G30 EPRZ METAR EPRZ 231230Z 21004KT 150V260 CAVOK 21/03 Q1013 =